Terminal Aerodrome Forecast
Issued by NWS Jackson, MS

Home | Current Version | Previous Version | Text Only | Print | Product List | Glossary On
Versions: 1 2 3 4 5 6 7 8 9 10 11 12
000
FTUS44 KJAN 030500
TAFGWO
TAF
KGWO 030539Z 0306/0406 08007KT 2SM BR OVC004
     FM030900 16003KT 1/2SM FG OVC002
     FM031400 17004KT 2SM BR OVC007
     FM031700 19007KT 4SM BR OVC009
     FM040000 17004KT 2SM BR OVC003=

USA.gov is the U.S. government's official web portal to all federal, state and local government web resources and services.